Station info - map view · info · telemetry · weather · raw · status · beacons · messages · bulletins · browse · moving · my account
Callsign, ship name or locator: Clear       
It is possible to search using wildcards (*?) after a prefix. Example: OH*
APRS station KE0UMP-9 - show graphs
Map loading...
Comment: 146.520MHz MONITORING 146.520 AND LOCAL REPEATERS.
Mic-E message: In service
Location: 43°31.89' N 88°14.18' W - locator EN53VM17PN - show map - static map
0.8 miles Northwest bearing 333° from Kewaskum, Washington County, Wisconsin, United States [?]
5.0 miles Southeast bearing 155° from Campbellsport, Fond du Lac County, Wisconsin, United States
37.8 miles Northwest bearing 334° from Milwaukee, Milwaukee County, Wisconsin, United States
66.5 miles Northeast bearing 61° from Madison, Dane County, Wisconsin, United States
Last position: 2019-12-08 18:00:22 EST (4h6m ago)
2019-12-08 17:00:22 CST local time at Kewaskum, United States [?]
Altitude: 974 ft
Course: 193°
Speed: 33 MPH
Device: Yaesu: FTM-400DR (rig)
Last path: KE0UMP-9>T3SQ8Y via KA9BAB-10*,N9QIP-7*,WIDE2*,qAR,KD9GFU (good)
Positions stored: 2278
Other SSIDs: KE0UMP
Stations near current position of KE0UMP-9 - show more
callsign distance last heard - EST      callsign distance last heard - EST
CW97125.6 miles 193°2019-12-08 22:00:31 WQ5O B7.5 miles 187°2019-12-08 21:52:31
WQ5O-B7.5 miles 187°2019-12-08 21:52:31 EW27427.7 miles 171°2019-12-08 21:45:03
CW63018.0 miles 300°2019-12-08 22:05:51 N9LOO-18.6 miles 158°2019-11-12 21:49:22
WB9AZH B9.0 miles 25°2019-12-08 21:58:21 WB9AZH-B9.0 miles 25°2019-12-08 21:58:31
CW44459.3 miles 169°2019-12-04 19:49:15 EW09439.3 miles 151°2019-12-08 22:06:33
CW631511.7 miles 125°2019-12-08 22:00:27 KD9MZ B12.8 miles 155°2019-12-08 21:52:02
KD9MZ-B12.8 miles 155°2019-12-08 21:52:12 KD9MZ-N12.8 miles 155°2019-12-08 21:52:21
N9YMC-1114.0 miles 166°2019-11-22 14:19:15 N9PBY-214.4 miles 85°2019-12-08 22:00:07
KC9AVZ15.0 miles 167°2019-12-08 21:46:12 K9ZZZ-315.9 miles 224°2019-11-25 13:33:40
KA9BAB-1016.0 miles 246°2019-12-08 21:50:40 N0RRC16.4 miles 206°2019-12-08 21:56:17
Stations which heard KE0UMP-9 directly on radio –
callsign pkts first heard - EST last heard longest (tx => rx) longest at - EST
W9LTA-10 6 2019-12-02 15:30:53 2019-12-06 22:25:49 EN53UO > EN54FA 68.6 miles 294° 2019-12-02 16:04:35
AB9HH-10 1 2019-12-02 21:10:15 2019-12-02 21:10:15 EN53TP > EN53XB 44.0 miles 160° 2019-12-02 21:10:15
KC0NFA-2 1 2019-12-01 16:52:02 2019-12-01 16:52:02 EN31OQ > EN31LQ 14.3 miles 271° 2019-12-01 16:52:02
KA9BAB-10 18 2019-12-02 10:53:33 2019-12-08 18:00:22 EN53UQ > EN53RK 20.5 miles 210° 2019-12-02 13:47:46
N9QIP-11 3 2019-12-01 21:51:23 2019-12-01 21:59:49 EN53JE > EN52LT 28.4 miles 163° 2019-12-01 21:59:49
WL7CLI 4 2019-12-01 16:15:36 2019-12-01 16:23:46 EN31GQ > EN31FP 6.0 miles 239° 2019-12-01 16:23:46
K0HAM-10 4 2019-12-01 17:32:33 2019-12-01 17:44:36 EN41CQ > EN41HS 22.3 miles 74° 2019-12-01 17:32:33
KA9BAB-6 4 2019-12-02 12:43:20 2019-12-07 15:20:50 EN53UO > EN53LT 41.8 miles 292° 2019-12-02 12:58:51
KA9BAB-7 26 2019-12-02 10:12:06 2019-12-07 14:54:43 EN53UO > EN54WA 28.3 miles 13° 2019-12-06 22:03:20
N0BKB-1 4 2019-12-01 12:04:56 2019-12-01 15:37:39 EN31DN > EN21UJ 33.6 miles 246° 2019-12-01 12:04:56
N9QIP-7 4 2019-12-01 22:18:46 2019-12-02 10:49:27 EN53SQ > EN53OE 37.7 miles 206° 2019-12-02 10:49:27
W9RCG-2 1 2019-12-08 13:09:57 2019-12-08 13:09:57 EN53UM > EN53WC 29.5 miles 164° 2019-12-08 13:09:57
W9MQB 3 2019-12-01 22:08:04 2019-12-01 22:25:06 EN53MJ > EN53OB 25.1 miles 164° 2019-12-01 22:25:06
W0AK-1 7 2019-12-01 12:01:19 2019-12-01 16:19:47 EN31FP > EN31EN 9.2 miles 219° 2019-12-01 16:19:47
KB9TEN 2 2019-12-01 21:53:22 2019-12-01 21:55:23 EN53IC > EN53ID 1.8 miles 312° 2019-12-01 21:53:22
W0RAY 33 2019-12-01 11:52:28 2019-12-01 16:09:31 EN31EO > EN31BP 10.7 miles 287° 2019-12-01 16:09:31
N9EM 1 2019-12-01 21:36:47 2019-12-01 21:36:47 EN53GA > EN53JA 14.9 miles 92° 2019-12-01 21:36:47
N9EM-5 3 2019-12-01 21:43:12 2019-12-01 21:49:21 EN53IB > EN53HC 5.0 miles 291° 2019-12-01 21:49:21
N9PZR-10 12 2019-12-02 16:35:34 2019-12-02 17:06:55 EN53RW > EN53QX 3.3 miles 345° 2019-12-02 17:06:55
W9DOR-9 5 2019-12-02 10:45:27 2019-12-02 20:43:18 EN53TP > EN64ES 83.7 miles 26° 2019-12-02 12:50:40
KC9VXZ-10 1 2019-12-01 22:29:08 2019-12-01 22:29:08 EN53NK > EN53OL 3.7 miles 58° 2019-12-01 22:29:08
AA9NV 3 2019-12-02 12:35:28 2019-12-02 17:18:51 EN53TQ > EN54KI 59.6 miles 322° 2019-12-02 12:47:23
W0AMK 2 2019-12-01 18:09:19 2019-12-01 18:12:06 EN42FA > EN42FB 2.6 miles 282° 2019-12-01 18:12:06
KB8ZXE-1 42 2019-12-01 22:55:25 2019-12-07 15:28:50 EN53UO > EN54XJ 56.8 miles 15° 2019-12-04 10:45:26
WA9TT-10 6 2019-12-02 12:41:14 2019-12-02 16:50:09 EN53UO > EN54SH 47.7 miles 350° 2019-12-02 12:54:43
KD0ION 4 2019-12-01 17:50:36 2019-12-01 18:30:15 EN41DU > EN42FD 19.7 miles 18° 2019-12-01 17:50:36
W0GQ-1 2 2019-12-01 17:48:36 2019-12-01 18:22:14 EN42IB > EN42DB 19.2 miles 267° 2019-12-01 18:22:14
KW0O-12 9 2019-12-01 17:52:36 2019-12-01 18:20:12 EN42HB > EN42EA 12.6 miles 256° 2019-12-01 18:20:12
N0RXD-2 1 2019-12-01 17:34:32 2019-12-01 17:34:32 EN41DQ > EN41GP 16.0 miles 104° 2019-12-01 17:34:32
WA6FXP 5 2019-12-01 16:25:47 2019-12-01 16:35:49 EN31HQ > EN31JP 7.3 miles 97° 2019-12-01 16:25:47
N9VHT-4 3 2019-12-01 21:29:59 2019-12-01 21:38:58 EN53GA > EN52FX 6.5 miles 246° 2019-12-01 21:38:58
W0GN-1 7 2019-12-01 18:34:18 2019-12-01 18:58:40 EN42OJ > EN42KD 24.6 miles 227° 2019-12-01 18:58:40
KC9TS-3 1 2019-12-01 21:43:14 2019-12-01 21:43:14 EN53HB > EN53GB 4.8 miles 283° 2019-12-01 21:43:14

Only position packets which were originated by the station are shown here. The range statistics show some extra long hops, because some digipeaters do not correctly add themselves to the digipeater path. Please check the raw packets.
About this site
This page shows real-time information collected from the Automatic Position Reporting System Internet network (APRS-IS). APRS is used by amateur (ham) radio operators to transmit real-time position information, weather data, telemetry and messages over the radio. A vehicle equipped with a GPS receiver, a VHF transmitter or HF transceiver and a small computer device called a tracker transmits it's location, speed and course in a small data packet, which is then received by a nearby iGate receiving site which forwards the packet on the Internet. Systems connected to the Internet can send information on the APRS-IS without a radio transmitter, or collect and display information transmitted anywhere in the world.
User guide · FAQ · Blog · Discussion group · Linking to aprs.fi · AIS sites · Service status · Database statistics · Advertising on aprs.fi · Technical details · API · Change log · Planned changes · Credits and thanks · Terms Of Service · iPhone/iPad APRS